sensor_id;sensor_type;location;lat;lon;timestamp;P1;durP1;ratioP1;P2;durP2;ratioP2
14116;SDS011;7137;51.436;6.544;2023-04-24T00:01:42;4.07;;;2.50;;
14116;SDS011;7137;51.436;6.544;2023-04-24T00:04:44;3.77;;;2.40;;
14116;SDS011;7137;51.436;6.544;2023-04-24T00:07:45;4.67;;;2.50;;
14116;SDS011;7137;51.436;6.544;2023-04-24T00:10:47;5.67;;;2.67;;
14116;SDS011;7137;51.436;6.544;2023-04-24T00:13:49;4.43;;;2.40;;
14116;SDS011;7137;51.436;6.544;2023-04-24T00:16:52;4.40;;;2.47;;
14116;SDS011;7137;51.436;6.544;2023-04-24T00:19:53;5.50;;;3.10;;
14116;SDS011;7137;51.436;6.544;2023-04-24T00:22:58;4.17;;;2.60;;
14116;SDS011;7137;51.436;6.544;2023-04-24T00:25:59;5.73;;;2.63;;
14116;SDS011;7137;51.436;6.544;2023-04-24T00:29:02;5.00;;;2.70;;
14116;SDS011;7137;51.436;6.544;2023-04-24T00:32:05;5.93;;;2.90;;
14116;SDS011;7137;51.436;6.544;2023-04-24T00:35:06;7.27;;;3.50;;
14116;SDS011;7137;51.436;6.544;2023-04-24T00:38:08;5.97;;;3.27;;
14116;SDS011;7137;51.436;6.544;2023-04-24T00:41:10;5.07;;;3.47;;
14116;SDS011;7137;51.436;6.544;2023-04-24T00:44:11;5.33;;;3.43;;
14116;SDS011;7137;51.436;6.544;2023-04-24T00:47:14;7.30;;;4.00;;
14116;SDS011;7137;51.436;6.544;2023-04-24T00:50:16;5.97;;;3.83;;
14116;SDS011;7137;51.436;6.544;2023-04-24T00:53:19;6.67;;;4.40;;
14116;SDS011;7137;51.436;6.544;2023-04-24T00:56:22;5.83;;;4.47;;
14116;SDS011;7137;51.436;6.544;2023-04-24T00:59:24;6.50;;;4.50;;
14116;SDS011;7137;51.436;6.544;2023-04-24T01:02:27;7.70;;;4.83;;
14116;SDS011;7137;51.436;6.544;2023-04-24T01:05:29;6.97;;;4.90;;
14116;SDS011;7137;51.436;6.544;2023-04-24T01:08:31;7.20;;;5.40;;
14116;SDS011;7137;51.436;6.544;2023-04-24T01:11:33;8.77;;;5.60;;
14116;SDS011;7137;51.436;6.544;2023-04-24T01:18:33;8.53;;;6.10;;
14116;SDS011;7137;51.436;6.544;2023-04-24T01:21:35;8.80;;;6.20;;
14116;SDS011;7137;51.436;6.544;2023-04-24T01:24:39;9.10;;;6.40;;
14116;SDS011;7137;51.436;6.544;2023-04-24T01:27:41;8.57;;;6.40;;
14116;SDS011;7137;51.436;6.544;2023-04-24T01:30:44;8.73;;;6.73;;
14116;SDS011;7137;51.436;6.544;2023-04-24T01:33:46;8.27;;;6.50;;
14116;SDS011;7137;51.436;6.544;2023-04-24T01:36:48;10.13;;;6.70;;
14116;SDS011;7137;51.436;6.544;2023-04-24T01:39:51;11.37;;;6.90;;
14116;SDS011;7137;51.436;6.544;2023-04-24T01:42:53;9.33;;;5.93;;
14116;SDS011;7137;51.436;6.544;2023-04-24T01:45:54;9.73;;;6.73;;
14116;SDS011;7137;51.436;6.544;2023-04-24T01:48:56;9.47;;;6.80;;
14116;SDS011;7137;51.436;6.544;2023-04-24T01:51:58;10.53;;;6.97;;
14116;SDS011;7137;51.436;6.544;2023-04-24T01:55:00;9.20;;;6.63;;
14116;SDS011;7137;51.436;6.544;2023-04-24T01:58:02;8.53;;;7.00;;
14116;SDS011;7137;51.436;6.544;2023-04-24T02:01:05;10.27;;;6.90;;
14116;SDS011;7137;51.436;6.544;2023-04-24T02:04:07;10.17;;;6.53;;
14116;SDS011;7137;51.436;6.544;2023-04-24T02:07:09;9.23;;;7.00;;
14116;SDS011;7137;51.436;6.544;2023-04-24T02:10:12;9.83;;;8.07;;
14116;SDS011;7137;51.436;6.544;2023-04-24T02:13:13;11.27;;;8.00;;
14116;SDS011;7137;51.436;6.544;2023-04-24T02:16:15;10.50;;;8.63;;
14116;SDS011;7137;51.436;6.544;2023-04-24T02:19:16;11.43;;;8.53;;
14116;SDS011;7137;51.436;6.544;2023-04-24T02:22:18;12.67;;;9.57;;
14116;SDS011;7137;51.436;6.544;2023-04-24T02:25:21;11.67;;;9.23;;
14116;SDS011;7137;51.436;6.544;2023-04-24T02:28:22;13.10;;;9.60;;
14116;SDS011;7137;51.436;6.544;2023-04-24T02:31:24;12.10;;;10.33;;
14116;SDS011;7137;51.436;6.544;2023-04-24T02:34:25;13.30;;;10.23;;
14116;SDS011;7137;51.436;6.544;2023-04-24T02:37:27;11.87;;;9.80;;
14116;SDS011;7137;51.436;6.544;2023-04-24T02:40:30;13.20;;;10.60;;
14116;SDS011;7137;51.436;6.544;2023-04-24T02:43:31;12.40;;;11.07;;
14116;SDS011;7137;51.436;6.544;2023-04-24T02:46:33;16.03;;;11.67;;
14116;SDS011;7137;51.436;6.544;2023-04-24T02:49:35;15.50;;;12.23;;
14116;SDS011;7137;51.436;6.544;2023-04-24T02:52:36;13.03;;;11.03;;
14116;SDS011;7137;51.436;6.544;2023-04-24T02:55:39;15.83;;;11.77;;
14116;SDS011;7137;51.436;6.544;2023-04-24T02:58:41;13.93;;;11.93;;
14116;SDS011;7137;51.436;6.544;2023-04-24T03:01:43;17.50;;;13.20;;
14116;SDS011;7137;51.436;6.544;2023-04-24T03:04:44;14.47;;;12.40;;
14116;SDS011;7137;51.436;6.544;2023-04-24T03:07:47;14.77;;;12.37;;
14116;SDS011;7137;51.436;6.544;2023-04-24T03:10:51;14.83;;;13.13;;
14116;SDS011;7137;51.436;6.544;2023-04-24T03:13:52;18.10;;;12.87;;
14116;SDS011;7137;51.436;6.544;2023-04-24T03:20:51;16.60;;;13.20;;
14116;SDS011;7137;51.436;6.544;2023-04-24T03:23:53;16.80;;;13.33;;
14116;SDS011;7137;51.436;6.544;2023-04-24T03:26:56;15.93;;;12.77;;
14116;SDS011;7137;51.436;6.544;2023-04-24T03:29:57;16.07;;;12.70;;
14116;SDS011;7137;51.436;6.544;2023-04-24T03:33:00;15.00;;;11.83;;
14116;SDS011;7137;51.436;6.544;2023-04-24T03:36:02;15.97;;;12.40;;
14116;SDS011;7137;51.436;6.544;2023-04-24T03:39:04;17.23;;;13.43;;
14116;SDS011;7137;51.436;6.544;2023-04-24T03:42:06;15.93;;;12.33;;
14116;SDS011;7137;51.436;6.544;2023-04-24T03:45:09;16.27;;;12.27;;
14116;SDS011;7137;51.436;6.544;2023-04-24T03:48:11;17.23;;;11.80;;
14116;SDS011;7137;51.436;6.544;2023-04-24T03:51:12;14.90;;;11.83;;
14116;SDS011;7137;51.436;6.544;2023-04-24T03:54:14;15.60;;;12.13;;
14116;SDS011;7137;51.436;6.544;2023-04-24T03:57:17;15.53;;;11.80;;
14116;SDS011;7137;51.436;6.544;2023-04-24T04:00:18;15.97;;;11.77;;
14116;SDS011;7137;51.436;6.544;2023-04-24T04:03:21;15.97;;;12.30;;
14116;SDS011;7137;51.436;6.544;2023-04-24T04:06:22;15.93;;;11.70;;
14116;SDS011;7137;51.436;6.544;2023-04-24T04:09:24;14.10;;;11.30;;
14116;SDS011;7137;51.436;6.544;2023-04-24T04:16:23;15.97;;;11.67;;
14116;SDS011;7137;51.436;6.544;2023-04-24T04:19:25;14.97;;;11.07;;
14116;SDS011;7137;51.436;6.544;2023-04-24T04:22:26;13.83;;;11.43;;
14116;SDS011;7137;51.436;6.544;2023-04-24T04:25:28;12.73;;;10.87;;
14116;SDS011;7137;51.436;6.544;2023-04-24T04:28:29;16.30;;;11.47;;
14116;SDS011;7137;51.436;6.544;2023-04-24T04:31:33;13.03;;;10.90;;
14116;SDS011;7137;51.436;6.544;2023-04-24T04:34:35;11.37;;;10.00;;
14116;SDS011;7137;51.436;6.544;2023-04-24T04:37:37;12.80;;;10.10;;
14116;SDS011;7137;51.436;6.544;2023-04-24T04:40:40;11.37;;;9.70;;
14116;SDS011;7137;51.436;6.544;2023-04-24T04:43:41;14.03;;;10.50;;
14116;SDS011;7137;51.436;6.544;2023-04-24T04:46:44;13.87;;;9.73;;
14116;SDS011;7137;51.436;6.544;2023-04-24T04:49:47;12.70;;;9.17;;
14116;SDS011;7137;51.436;6.544;2023-04-24T04:52:51;12.47;;;8.90;;
14116;SDS011;7137;51.436;6.544;2023-04-24T04:55:53;13.50;;;9.20;;
14116;SDS011;7137;51.436;6.544;2023-04-24T04:58:54;11.40;;;9.33;;
14116;SDS011;7137;51.436;6.544;2023-04-24T05:01:57;9.23;;;8.10;;
14116;SDS011;7137;51.436;6.544;2023-04-24T05:05:00;11.90;;;8.60;;
14116;SDS011;7137;51.436;6.544;2023-04-24T05:08:02;11.93;;;9.40;;
14116;SDS011;7137;51.436;6.544;2023-04-24T05:11:04;12.33;;;8.67;;
14116;SDS011;7137;51.436;6.544;2023-04-24T05:14:06;9.93;;;8.60;;
14116;SDS011;7137;51.436;6.544;2023-04-24T05:17:09;9.80;;;8.67;;
14116;SDS011;7137;51.436;6.544;2023-04-24T05:20:11;9.73;;;8.40;;
14116;SDS011;7137;51.436;6.544;2023-04-24T05:23:12;10.40;;;8.87;;
14116;SDS011;7137;51.436;6.544;2023-04-24T05:26:14;10.87;;;8.40;;
14116;SDS011;7137;51.436;6.544;2023-04-24T05:29:15;11.43;;;8.40;;
14116;SDS011;7137;51.436;6.544;2023-04-24T05:32:20;10.23;;;8.30;;
14116;SDS011;7137;51.436;6.544;2023-04-24T05:35:21;9.33;;;8.17;;
14116;SDS011;7137;51.436;6.544;2023-04-24T05:38:23;10.00;;;8.70;;
14116;SDS011;7137;51.436;6.544;2023-04-24T05:41:24;9.77;;;8.70;;
14116;SDS011;7137;51.436;6.544;2023-04-24T05:44:26;11.70;;;9.23;;
14116;SDS011;7137;51.436;6.544;2023-04-24T05:47:29;11.80;;;9.47;;
14116;SDS011;7137;51.436;6.544;2023-04-24T05:50:30;13.40;;;9.83;;
14116;SDS011;7137;51.436;6.544;2023-04-24T05:53:32;12.17;;;9.77;;
14116;SDS011;7137;51.436;6.544;2023-04-24T05:56:34;11.27;;;9.90;;
14116;SDS011;7137;51.436;6.544;2023-04-24T05:59:36;11.83;;;10.53;;
14116;SDS011;7137;51.436;6.544;2023-04-24T06:02:40;11.57;;;10.37;;
14116;SDS011;7137;51.436;6.544;2023-04-24T06:05:41;10.57;;;9.47;;
14116;SDS011;7137;51.436;6.544;2023-04-24T06:08:43;11.10;;;9.80;;
14116;SDS011;7137;51.436;6.544;2023-04-24T06:11:45;11.70;;;9.33;;
14116;SDS011;7137;51.436;6.544;2023-04-24T06:14:46;10.80;;;9.33;;
14116;SDS011;7137;51.436;6.544;2023-04-24T06:17:50;10.27;;;9.17;;
14116;SDS011;7137;51.436;6.544;2023-04-24T06:20:51;11.67;;;8.90;;
14116;SDS011;7137;51.436;6.544;2023-04-24T06:23:53;10.43;;;9.33;;
14116;SDS011;7137;51.436;6.544;2023-04-24T06:26:56;10.67;;;8.40;;
14116;SDS011;7137;51.436;6.544;2023-04-24T06:29:58;9.67;;;8.60;;
14116;SDS011;7137;51.436;6.544;2023-04-24T06:33:01;8.83;;;7.80;;
14116;SDS011;7137;51.436;6.544;2023-04-24T06:36:03;8.63;;;7.20;;
14116;SDS011;7137;51.436;6.544;2023-04-24T06:39:05;8.63;;;7.63;;
14116;SDS011;7137;51.436;6.544;2023-04-24T06:42:06;9.33;;;8.03;;
14116;SDS011;7137;51.436;6.544;2023-04-24T06:45:09;8.57;;;7.53;;
14116;SDS011;7137;51.436;6.544;2023-04-24T06:48:12;8.33;;;6.67;;
14116;SDS011;7137;51.436;6.544;2023-04-24T06:51:13;8.30;;;6.40;;
14116;SDS011;7137;51.436;6.544;2023-04-24T06:54:15;7.80;;;6.33;;
14116;SDS011;7137;51.436;6.544;2023-04-24T06:57:17;6.93;;;5.10;;
14116;SDS011;7137;51.436;6.544;2023-04-24T07:00:18;6.63;;;3.90;;
14116;SDS011;7137;51.436;6.544;2023-04-24T07:03:22;4.43;;;2.73;;
14116;SDS011;7137;51.436;6.544;2023-04-24T07:06:23;4.07;;;2.40;;
14116;SDS011;7137;51.436;6.544;2023-04-24T07:09:25;3.27;;;1.93;;
14116;SDS011;7137;51.436;6.544;2023-04-24T07:12:27;3.53;;;2.30;;
14116;SDS011;7137;51.436;6.544;2023-04-24T07:15:29;3.63;;;2.20;;
14116;SDS011;7137;51.436;6.544;2023-04-24T07:18:33;3.20;;;2.10;;
14116;SDS011;7137;51.436;6.544;2023-04-24T07:21:35;3.33;;;1.93;;
14116;SDS011;7137;51.436;6.544;2023-04-24T07:24:36;4.70;;;2.23;;
14116;SDS011;7137;51.436;6.544;2023-04-24T07:27:38;3.37;;;2.20;;
14116;SDS011;7137;51.436;6.544;2023-04-24T07:30:39;4.87;;;2.70;;
14116;SDS011;7137;51.436;6.544;2023-04-24T07:33:42;3.90;;;2.23;;
14116;SDS011;7137;51.436;6.544;2023-04-24T07:36:44;2.90;;;1.63;;
14116;SDS011;7137;51.436;6.544;2023-04-24T07:39:45;3.23;;;1.80;;
14116;SDS011;7137;51.436;6.544;2023-04-24T07:42:47;3.43;;;1.80;;
14116;SDS011;7137;51.436;6.544;2023-04-24T07:45:49;4.07;;;1.90;;
14116;SDS011;7137;51.436;6.544;2023-04-24T07:48:52;3.47;;;1.90;;
14116;SDS011;7137;51.436;6.544;2023-04-24T07:51:54;3.40;;;1.70;;
14116;SDS011;7137;51.436;6.544;2023-04-24T07:54:55;2.40;;;1.50;;
14116;SDS011;7137;51.436;6.544;2023-04-24T07:57:58;3.03;;;1.50;;
14116;SDS011;7137;51.436;6.544;2023-04-24T08:01:00;1.93;;;1.40;;
14116;SDS011;7137;51.436;6.544;2023-04-24T08:04:02;2.47;;;1.17;;
14116;SDS011;7137;51.436;6.544;2023-04-24T08:07:04;3.60;;;1.83;;
14116;SDS011;7137;51.436;6.544;2023-04-24T08:10:06;2.40;;;1.50;;
14116;SDS011;7137;51.436;6.544;2023-04-24T08:13:08;4.10;;;1.60;;
14116;SDS011;7137;51.436;6.544;2023-04-24T08:16:11;2.10;;;1.30;;
14116;SDS011;7137;51.436;6.544;2023-04-24T08:19:14;2.53;;;1.20;;
14116;SDS011;7137;51.436;6.544;2023-04-24T08:22:15;2.30;;;1.10;;
14116;SDS011;7137;51.436;6.544;2023-04-24T08:25:17;2.37;;;1.20;;
14116;SDS011;7137;51.436;6.544;2023-04-24T08:28:19;2.43;;;1.20;;
14116;SDS011;7137;51.436;6.544;2023-04-24T08:31:20;3.00;;;1.20;;
14116;SDS011;7137;51.436;6.544;2023-04-24T08:34:24;1.57;;;1.13;;
14116;SDS011;7137;51.436;6.544;2023-04-24T08:37:25;2.43;;;1.10;;
14116;SDS011;7137;51.436;6.544;2023-04-24T08:40:28;2.37;;;1.37;;
14116;SDS011;7137;51.436;6.544;2023-04-24T08:43:30;3.23;;;2.00;;
14116;SDS011;7137;51.436;6.544;2023-04-24T08:46:34;10.17;;;4.50;;
14116;SDS011;7137;51.436;6.544;2023-04-24T08:49:38;8.20;;;6.80;;
14116;SDS011;7137;51.436;6.544;2023-04-24T08:52:40;10.40;;;8.33;;
14116;SDS011;7137;51.436;6.544;2023-04-24T08:55:43;10.50;;;8.40;;
14116;SDS011;7137;51.436;6.544;2023-04-24T08:58:47;9.60;;;6.03;;
14116;SDS011;7137;51.436;6.544;2023-04-24T09:01:49;8.93;;;6.83;;
14116;SDS011;7137;51.436;6.544;2023-04-24T09:04:54;10.67;;;7.17;;
14116;SDS011;7137;51.436;6.544;2023-04-24T09:07:57;11.83;;;8.13;;
14116;SDS011;7137;51.436;6.544;2023-04-24T09:11:00;11.43;;;8.20;;
14116;SDS011;7137;51.436;6.544;2023-04-24T09:14:03;13.57;;;10.17;;
14116;SDS011;7137;51.436;6.544;2023-04-24T09:17:05;11.60;;;9.50;;
14116;SDS011;7137;51.436;6.544;2023-04-24T09:20:09;8.87;;;6.00;;
14116;SDS011;7137;51.436;6.544;2023-04-24T09:23:11;13.70;;;9.03;;
14116;SDS011;7137;51.436;6.544;2023-04-24T09:26:18;12.67;;;9.83;;
14116;SDS011;7137;51.436;6.544;2023-04-24T09:29:22;11.93;;;9.93;;
14116;SDS011;7137;51.436;6.544;2023-04-24T09:32:24;14.23;;;9.70;;
14116;SDS011;7137;51.436;6.544;2023-04-24T09:35:29;15.17;;;10.50;;
14116;SDS011;7137;51.436;6.544;2023-04-24T09:38:34;14.57;;;10.83;;
14116;SDS011;7137;51.436;6.544;2023-04-24T09:41:43;14.03;;;9.97;;
14116;SDS011;7137;51.436;6.544;2023-04-24T09:44:45;12.83;;;10.77;;
14116;SDS011;7137;51.436;6.544;2023-04-24T09:47:52;17.83;;;9.60;;
14116;SDS011;7137;51.436;6.544;2023-04-24T09:50:55;12.80;;;7.73;;
14116;SDS011;7137;51.436;6.544;2023-04-24T09:53:57;12.83;;;7.57;;
14116;SDS011;7137;51.436;6.544;2023-04-24T09:56:58;14.70;;;7.07;;
14116;SDS011;7137;51.436;6.544;2023-04-24T10:00:00;14.10;;;6.90;;
14116;SDS011;7137;51.436;6.544;2023-04-24T10:03:02;12.07;;;7.17;;
14116;SDS011;7137;51.436;6.544;2023-04-24T10:06:07;12.63;;;6.77;;
14116;SDS011;7137;51.436;6.544;2023-04-24T10:09:10;14.33;;;7.50;;
14116;SDS011;7137;51.436;6.544;2023-04-24T10:12:13;13.83;;;7.23;;
14116;SDS011;7137;51.436;6.544;2023-04-24T10:15:16;11.27;;;6.10;;
14116;SDS011;7137;51.436;6.544;2023-04-24T10:18:21;14.50;;;6.63;;
14116;SDS011;7137;51.436;6.544;2023-04-24T10:21:24;13.40;;;5.57;;
14116;SDS011;7137;51.436;6.544;2023-04-24T10:24:26;12.53;;;5.60;;
14116;SDS011;7137;51.436;6.544;2023-04-24T10:27:29;9.87;;;5.13;;
14116;SDS011;7137;51.436;6.544;2023-04-24T10:30:33;12.20;;;4.57;;
14116;SDS011;7137;51.436;6.544;2023-04-24T10:33:36;12.40;;;5.20;;
14116;SDS011;7137;51.436;6.544;2023-04-24T10:36:43;11.83;;;5.37;;
14116;SDS011;7137;51.436;6.544;2023-04-24T10:39:49;12.50;;;4.27;;
14116;SDS011;7137;51.436;6.544;2023-04-24T10:42:51;13.37;;;4.50;;
14116;SDS011;7137;51.436;6.544;2023-04-24T10:46:00;13.33;;;4.60;;
14116;SDS011;7137;51.436;6.544;2023-04-24T10:49:03;10.50;;;4.80;;
14116;SDS011;7137;51.436;6.544;2023-04-24T10:52:09;9.57;;;4.60;;
14116;SDS011;7137;51.436;6.544;2023-04-24T10:55:12;12.07;;;4.83;;
14116;SDS011;7137;51.436;6.544;2023-04-24T10:58:14;10.83;;;4.53;;
14116;SDS011;7137;51.436;6.544;2023-04-24T11:01:26;10.27;;;4.10;;
14116;SDS011;7137;51.436;6.544;2023-04-24T11:04:29;7.97;;;3.47;;
14116;SDS011;7137;51.436;6.544;2023-04-24T11:07:37;7.63;;;3.13;;
14116;SDS011;7137;51.436;6.544;2023-04-24T11:11:12;9.63;;;2.77;;
14116;SDS011;7137;51.436;6.544;2023-04-24T11:14:15;8.17;;;3.13;;
14116;SDS011;7137;51.436;6.544;2023-04-24T11:17:26;10.83;;;3.40;;
14116;SDS011;7137;51.436;6.544;2023-04-24T11:20:30;10.83;;;3.10;;
14116;SDS011;7137;51.436;6.544;2023-04-24T11:23:36;14.60;;;3.20;;
14116;SDS011;7137;51.436;6.544;2023-04-24T11:26:38;7.60;;;3.13;;
14116;SDS011;7137;51.436;6.544;2023-04-24T11:29:41;7.93;;;3.13;;
14116;SDS011;7137;51.436;6.544;2023-04-24T11:32:47;8.23;;;3.03;;
14116;SDS011;7137;51.436;6.544;2023-04-24T11:35:49;8.77;;;3.00;;
14116;SDS011;7137;51.436;6.544;2023-04-24T11:38:53;8.33;;;3.63;;
14116;SDS011;7137;51.436;6.544;2023-04-24T11:42:01;8.63;;;3.43;;
14116;SDS011;7137;51.436;6.544;2023-04-24T11:45:07;9.37;;;3.70;;
14116;SDS011;7137;51.436;6.544;2023-04-24T11:48:10;8.73;;;3.63;;
14116;SDS011;7137;51.436;6.544;2023-04-24T11:51:11;9.53;;;3.97;;
14116;SDS011;7137;51.436;6.544;2023-04-24T11:54:14;8.33;;;3.93;;
14116;SDS011;7137;51.436;6.544;2023-04-24T11:57:16;8.13;;;3.70;;
14116;SDS011;7137;51.436;6.544;2023-04-24T12:00:20;6.83;;;3.17;;
14116;SDS011;7137;51.436;6.544;2023-04-24T12:03:22;6.97;;;3.17;;
14116;SDS011;7137;51.436;6.544;2023-04-24T12:06:24;7.73;;;2.87;;
14116;SDS011;7137;51.436;6.544;2023-04-24T12:09:27;7.83;;;2.70;;
14116;SDS011;7137;51.436;6.544;2023-04-24T12:12:28;7.20;;;2.37;;
14116;SDS011;7137;51.436;6.544;2023-04-24T12:15:30;5.33;;;2.00;;
14116;SDS011;7137;51.436;6.544;2023-04-24T12:18:31;5.30;;;1.70;;
14116;SDS011;7137;51.436;6.544;2023-04-24T12:21:33;5.37;;;1.90;;
14116;SDS011;7137;51.436;6.544;2023-04-24T12:24:54;4.90;;;1.60;;
14116;SDS011;7137;51.436;6.544;2023-04-24T12:28:08;4.53;;;1.60;;
14116;SDS011;7137;51.436;6.544;2023-04-24T12:31:11;4.67;;;1.40;;
14116;SDS011;7137;51.436;6.544;2023-04-24T12:34:17;4.97;;;1.53;;
14116;SDS011;7137;51.436;6.544;2023-04-24T12:37:20;4.80;;;1.73;;
14116;SDS011;7137;51.436;6.544;2023-04-24T12:40:24;4.27;;;1.90;;
14116;SDS011;7137;51.436;6.544;2023-04-24T12:43:26;3.63;;;1.37;;
14116;SDS011;7137;51.436;6.544;2023-04-24T12:46:28;3.83;;;1.20;;
14116;SDS011;7137;51.436;6.544;2023-04-24T12:49:30;3.97;;;1.20;;
14116;SDS011;7137;51.436;6.544;2023-04-24T12:52:31;3.40;;;1.00;;
14116;SDS011;7137;51.436;6.544;2023-04-24T12:55:34;3.87;;;1.30;;
14116;SDS011;7137;51.436;6.544;2023-04-24T12:58:36;4.90;;;1.37;;
14116;SDS011;7137;51.436;6.544;2023-04-24T13:01:37;6.17;;;1.37;;
14116;SDS011;7137;51.436;6.544;2023-04-24T13:04:39;6.80;;;1.30;;
14116;SDS011;7137;51.436;6.544;2023-04-24T13:07:40;4.37;;;1.20;;
14116;SDS011;7137;51.436;6.544;2023-04-24T13:10:43;5.83;;;1.27;;
14116;SDS011;7137;51.436;6.544;2023-04-24T13:13:45;4.13;;;1.30;;
14116;SDS011;7137;51.436;6.544;2023-04-24T13:16:46;5.00;;;1.20;;
14116;SDS011;7137;51.436;6.544;2023-04-24T13:19:48;5.93;;;1.30;;
14116;SDS011;7137;51.436;6.544;2023-04-24T13:22:51;6.30;;;1.40;;
14116;SDS011;7137;51.436;6.544;2023-04-24T13:25:54;2.00;;;1.00;;
14116;SDS011;7137;51.436;6.544;2023-04-24T13:28:58;2.97;;;1.30;;
14116;SDS011;7137;51.436;6.544;2023-04-24T13:31:59;3.67;;;1.20;;
14116;SDS011;7137;51.436;6.544;2023-04-24T13:35:01;4.20;;;1.70;;
14116;SDS011;7137;51.436;6.544;2023-04-24T13:38:03;5.27;;;1.33;;
14116;SDS011;7137;51.436;6.544;2023-04-24T13:41:07;5.47;;;1.77;;
14116;SDS011;7137;51.436;6.544;2023-04-24T13:44:09;2.80;;;1.20;;
14116;SDS011;7137;51.436;6.544;2023-04-24T13:47:11;3.17;;;1.10;;
14116;SDS011;7137;51.436;6.544;2023-04-24T13:50:12;3.03;;;1.13;;
14116;SDS011;7137;51.436;6.544;2023-04-24T13:53:15;4.00;;;1.20;;
14116;SDS011;7137;51.436;6.544;2023-04-24T13:56:17;5.83;;;1.80;;
14116;SDS011;7137;51.436;6.544;2023-04-24T13:59:20;3.33;;;1.10;;
14116;SDS011;7137;51.436;6.544;2023-04-24T14:02:22;2.77;;;1.03;;
14116;SDS011;7137;51.436;6.544;2023-04-24T14:05:23;2.53;;;1.03;;
14116;SDS011;7137;51.436;6.544;2023-04-24T14:08:25;3.30;;;1.07;;
14116;SDS011;7137;51.436;6.544;2023-04-24T14:11:28;2.63;;;0.90;;
14116;SDS011;7137;51.436;6.544;2023-04-24T14:14:30;2.70;;;0.90;;
14116;SDS011;7137;51.436;6.544;2023-04-24T14:17:31;1.70;;;0.83;;
14116;SDS011;7137;51.436;6.544;2023-04-24T14:20:33;3.30;;;1.20;;
14116;SDS011;7137;51.436;6.544;2023-04-24T14:23:35;4.13;;;1.27;;
14116;SDS011;7137;51.436;6.544;2023-04-24T14:26:37;3.70;;;1.30;;
14116;SDS011;7137;51.436;6.544;2023-04-24T14:29:39;2.63;;;1.13;;
14116;SDS011;7137;51.436;6.544;2023-04-24T14:32:41;3.63;;;1.40;;
14116;SDS011;7137;51.436;6.544;2023-04-24T14:35:42;4.63;;;1.50;;
14116;SDS011;7137;51.436;6.544;2023-04-24T14:38:44;4.63;;;1.80;;
14116;SDS011;7137;51.436;6.544;2023-04-24T14:41:47;5.13;;;1.80;;
14116;SDS011;7137;51.436;6.544;2023-04-24T14:44:48;4.23;;;1.80;;
14116;SDS011;7137;51.436;6.544;2023-04-24T14:47:50;6.10;;;1.83;;
14116;SDS011;7137;51.436;6.544;2023-04-24T14:50:52;4.07;;;1.60;;
14116;SDS011;7137;51.436;6.544;2023-04-24T14:53:53;5.17;;;1.73;;
14116;SDS011;7137;51.436;6.544;2023-04-24T14:56:56;3.93;;;1.47;;
14116;SDS011;7137;51.436;6.544;2023-04-24T14:59:58;4.63;;;1.40;;
14116;SDS011;7137;51.436;6.544;2023-04-24T15:03:00;3.57;;;1.10;;
14116;SDS011;7137;51.436;6.544;2023-04-24T15:06:02;5.27;;;1.50;;
14116;SDS011;7137;51.436;6.544;2023-04-24T15:09:03;3.73;;;1.30;;
14116;SDS011;7137;51.436;6.544;2023-04-24T15:12:06;2.80;;;1.40;;
14116;SDS011;7137;51.436;6.544;2023-04-24T15:15:09;3.53;;;1.20;;
14116;SDS011;7137;51.436;6.544;2023-04-24T15:18:11;3.80;;;1.43;;
14116;SDS011;7137;51.436;6.544;2023-04-24T15:21:13;3.53;;;1.40;;
14116;SDS011;7137;51.436;6.544;2023-04-24T15:24:14;3.50;;;1.27;;
14116;SDS011;7137;51.436;6.544;2023-04-24T15:27:17;5.03;;;1.40;;
14116;SDS011;7137;51.436;6.544;2023-04-24T15:30:19;5.40;;;1.47;;
14116;SDS011;7137;51.436;6.544;2023-04-24T15:33:20;4.40;;;1.40;;
14116;SDS011;7137;51.436;6.544;2023-04-24T15:36:22;3.87;;;1.50;;
14116;SDS011;7137;51.436;6.544;2023-04-24T15:39:23;3.53;;;1.40;;
14116;SDS011;7137;51.436;6.544;2023-04-24T15:42:26;3.13;;;1.63;;
14116;SDS011;7137;51.436;6.544;2023-04-24T15:45:28;5.53;;;1.70;;
14116;SDS011;7137;51.436;6.544;2023-04-24T15:48:30;5.57;;;1.60;;
14116;SDS011;7137;51.436;6.544;2023-04-24T15:51:32;5.00;;;1.30;;
14116;SDS011;7137;51.436;6.544;2023-04-24T15:54:34;5.80;;;1.60;;
14116;SDS011;7137;51.436;6.544;2023-04-24T15:57:39;4.30;;;1.40;;
14116;SDS011;7137;51.436;6.544;2023-04-24T16:00:41;4.17;;;1.40;;
14116;SDS011;7137;51.436;6.544;2023-04-24T16:03:43;4.73;;;1.43;;
14116;SDS011;7137;51.436;6.544;2023-04-24T16:06:45;3.13;;;1.20;;
14116;SDS011;7137;51.436;6.544;2023-04-24T16:09:47;3.50;;;1.63;;
14116;SDS011;7137;51.436;6.544;2023-04-24T16:12:50;4.07;;;1.40;;
14116;SDS011;7137;51.436;6.544;2023-04-24T16:15:52;5.13;;;1.73;;
14116;SDS011;7137;51.436;6.544;2023-04-24T16:18:53;3.53;;;1.40;;
14116;SDS011;7137;51.436;6.544;2023-04-24T16:21:55;3.27;;;1.03;;
14116;SDS011;7137;51.436;6.544;2023-04-24T16:24:58;3.93;;;1.23;;
14116;SDS011;7137;51.436;6.544;2023-04-24T16:28:00;3.97;;;1.27;;
14116;SDS011;7137;51.436;6.544;2023-04-24T16:31:02;4.40;;;1.43;;
14116;SDS011;7137;51.436;6.544;2023-04-24T16:34:04;3.60;;;1.30;;
14116;SDS011;7137;51.436;6.544;2023-04-24T16:37:05;5.47;;;2.10;;
14116;SDS011;7137;51.436;6.544;2023-04-24T16:40:07;4.73;;;1.60;;
14116;SDS011;7137;51.436;6.544;2023-04-24T16:43:11;4.17;;;1.60;;
14116;SDS011;7137;51.436;6.544;2023-04-24T16:46:12;5.57;;;1.40;;
14116;SDS011;7137;51.436;6.544;2023-04-24T16:49:14;4.20;;;1.40;;
14116;SDS011;7137;51.436;6.544;2023-04-24T16:52:16;3.33;;;1.40;;
14116;SDS011;7137;51.436;6.544;2023-04-24T16:55:17;5.23;;;1.63;;
14116;SDS011;7137;51.436;6.544;2023-04-24T16:58:20;4.77;;;1.50;;
14116;SDS011;7137;51.436;6.544;2023-04-24T17:01:22;4.60;;;2.60;;
14116;SDS011;7137;51.436;6.544;2023-04-24T17:04:24;4.33;;;1.77;;
14116;SDS011;7137;51.436;6.544;2023-04-24T17:07:25;3.27;;;1.20;;
14116;SDS011;7137;51.436;6.544;2023-04-24T17:10:27;4.77;;;1.60;;
14116;SDS011;7137;51.436;6.544;2023-04-24T17:13:30;3.83;;;1.73;;
14116;SDS011;7137;51.436;6.544;2023-04-24T17:16:31;4.30;;;1.83;;
14116;SDS011;7137;51.436;6.544;2023-04-24T17:19:33;6.00;;;2.10;;
14116;SDS011;7137;51.436;6.544;2023-04-24T17:22:35;6.77;;;2.10;;
14116;SDS011;7137;51.436;6.544;2023-04-24T17:25:38;6.43;;;2.13;;
14116;SDS011;7137;51.436;6.544;2023-04-24T17:28:41;5.23;;;2.10;;
14116;SDS011;7137;51.436;6.544;2023-04-24T17:31:42;7.17;;;2.60;;
14116;SDS011;7137;51.436;6.544;2023-04-24T17:34:44;6.60;;;2.00;;
14116;SDS011;7137;51.436;6.544;2023-04-24T17:37:46;5.63;;;2.80;;
14116;SDS011;7137;51.436;6.544;2023-04-24T17:40:48;6.87;;;3.47;;
14116;SDS011;7137;51.436;6.544;2023-04-24T17:43:53;6.13;;;2.57;;
14116;SDS011;7137;51.436;6.544;2023-04-24T17:46:54;5.83;;;1.93;;
14116;SDS011;7137;51.436;6.544;2023-04-24T17:49:56;5.33;;;2.10;;
14116;SDS011;7137;51.436;6.544;2023-04-24T17:52:58;6.87;;;2.33;;
14116;SDS011;7137;51.436;6.544;2023-04-24T17:55:59;7.17;;;2.50;;
14116;SDS011;7137;51.436;6.544;2023-04-24T17:59:04;6.43;;;2.37;;
14116;SDS011;7137;51.436;6.544;2023-04-24T18:02:05;5.07;;;2.57;;
14116;SDS011;7137;51.436;6.544;2023-04-24T18:05:07;6.67;;;2.60;;
14116;SDS011;7137;51.436;6.544;2023-04-24T18:08:09;5.80;;;2.40;;
14116;SDS011;7137;51.436;6.544;2023-04-24T18:11:11;6.00;;;2.83;;
14116;SDS011;7137;51.436;6.544;2023-04-24T18:14:14;6.07;;;3.37;;
14116;SDS011;7137;51.436;6.544;2023-04-24T18:17:15;6.33;;;3.33;;
14116;SDS011;7137;51.436;6.544;2023-04-24T18:20:17;8.47;;;3.43;;
14116;SDS011;7137;51.436;6.544;2023-04-24T18:23:19;8.87;;;3.87;;
14116;SDS011;7137;51.436;6.544;2023-04-24T18:26:21;8.57;;;3.23;;
14116;SDS011;7137;51.436;6.544;2023-04-24T18:29:24;10.23;;;3.37;;
14116;SDS011;7137;51.436;6.544;2023-04-24T18:32:25;6.00;;;2.60;;
14116;SDS011;7137;51.436;6.544;2023-04-24T18:35:27;6.23;;;2.63;;
14116;SDS011;7137;51.436;6.544;2023-04-24T18:38:28;8.87;;;2.73;;
14116;SDS011;7137;51.436;6.544;2023-04-24T18:41:31;8.20;;;3.50;;